createdAt,value
2022-10-17T00:01:39.162Z,102487.63
2022-10-17T00:07:02.953Z,102492.88
2022-10-17T00:12:28.386Z,102480.38
2022-10-17T00:17:53.767Z,102481.78
2022-10-17T00:23:17.904Z,102498.13
2022-10-17T00:28:47.944Z,102500.81
2022-10-17T00:34:12.099Z,102502.50
2022-10-17T00:39:35.978Z,102513.31
2022-10-17T00:45:09.280Z,102507.78
2022-10-17T00:50:35.502Z,102507.09
2022-10-17T00:56:04.483Z,102523.56
2022-10-17T01:01:31.219Z,102521.16
2022-10-17T01:06:55.989Z,102523.13
2022-10-17T01:12:25.301Z,102514.19
2022-10-17T01:18:03.301Z,102519.59
2022-10-17T01:23:44.390Z,102523.81
2022-10-17T01:29:34.588Z,102525.75
2022-10-17T01:35:07.154Z,102525.97
2022-10-17T01:40:38.654Z,102531.09
2022-10-17T01:46:08.108Z,102516.06
2022-10-17T01:51:39.154Z,102518.88
2022-10-17T01:57:10.342Z,102521.88
2022-10-17T02:02:35.185Z,102532.38
2022-10-17T02:08:00.551Z,102522.16
2022-10-17T02:13:36.317Z,102523.56
2022-10-17T02:19:24.771Z,102519.72
2022-10-17T02:24:55.995Z,102524.13
2022-10-17T02:30:30.625Z,102525.38
2022-10-17T02:35:58.044Z,102522.09
2022-10-17T02:46:56.837Z,102537.00
2022-10-17T02:52:28.759Z,102538.69
2022-10-17T02:58:00.882Z,102539.97
2022-10-17T03:03:28.272Z,102527.91
2022-10-17T03:08:57.748Z,102534.81
2022-10-17T03:14:23.601Z,102537.63
2022-10-17T03:19:49.254Z,102541.72
2022-10-17T03:25:13.694Z,102550.06
2022-10-17T03:30:40.781Z,102544.81
2022-10-17T03:36:09.044Z,102542.00
2022-10-17T03:41:34.023Z,102551.91
2022-10-17T03:47:00.861Z,102547.94
2022-10-17T03:52:25.491Z,102556.28
2022-10-17T03:57:50.509Z,102548.22
2022-10-17T04:03:19.105Z,102562.38
2022-10-17T04:08:44.215Z,102575.44
2022-10-17T04:14:12.408Z,102590.47
2022-10-17T04:19:43.443Z,102593.88
2022-10-17T04:25:08.514Z,102593.34
2022-10-17T04:30:38.007Z,102603.59
2022-10-17T04:36:09.040Z,102601.34
2022-10-17T04:41:33.867Z,102604.13
2022-10-17T04:46:59.262Z,102605.75
2022-10-17T04:52:30.824Z,102604.63
2022-10-17T04:57:55.712Z,102599.75
2022-10-17T05:03:21.644Z,102612.50
2022-10-17T05:08:47.635Z,102614.31
2022-10-17T05:14:12.718Z,102611.72
2022-10-17T05:19:37.228Z,102616.28
2022-10-17T05:25:08.377Z,102601.69
2022-10-17T05:30:36.742Z,102605.84
2022-10-17T05:36:03.904Z,102607.97
2022-10-17T05:41:29.293Z,102616.28
2022-10-17T05:46:53.299Z,102624.50
2022-10-17T05:52:18.233Z,102613.94
2022-10-17T05:58:06.721Z,102609.50
2022-10-17T06:03:35.780Z,102608.41
2022-10-17T06:09:03.263Z,102604.25
2022-10-17T06:14:32.142Z,102615.38
2022-10-17T06:20:04.242Z,102620.59
2022-10-17T06:25:29.265Z,102635.78
2022-10-17T06:30:54.952Z,102646.38
2022-10-17T06:36:19.541Z,102652.44
2022-10-17T06:41:44.972Z,102654.94
2022-10-17T06:47:10.986Z,102649.31
2022-10-17T06:52:35.436Z,102636.81
2022-10-17T06:58:25.245Z,102648.09
2022-10-17T07:04:02.039Z,102653.78
2022-10-17T07:09:28.093Z,102663.03
2022-10-17T07:14:56.363Z,102665.16
2022-10-17T07:20:22.280Z,102666.03
2022-10-17T07:25:46.721Z,102659.84
2022-10-17T07:31:14.939Z,102645.66
2022-10-17T07:36:40.584Z,102646.97
2022-10-17T07:42:07.530Z,102643.91
2022-10-17T07:47:35.664Z,102628.69
2022-10-17T07:53:02.916Z,102633.50
2022-10-17T07:58:28.766Z,102636.63
2022-10-17T08:03:54.591Z,102635.69
2022-10-17T08:09:20.722Z,102624.25
2022-10-17T08:14:45.270Z,102628.38
2022-10-17T08:20:12.176Z,102625.69
2022-10-17T08:25:39.492Z,102614.00
2022-10-17T08:31:08.270Z,102599.50
2022-10-17T08:36:34.500Z,102610.81
2022-10-17T08:42:18.944Z,102607.78
2022-10-17T08:47:46.393Z,102596.91
2022-10-17T08:53:18.573Z,102600.81
2022-10-17T08:58:44.071Z,102610.38
2022-10-17T09:04:45.622Z,102597.94
2022-10-17T09:10:17.420Z,102592.00
2022-10-17T09:16:07.559Z,102593.94
2022-10-17T09:21:42.985Z,102588.13
2022-10-17T09:27:19.908Z,102585.47
2022-10-17T09:32:47.691Z,102583.25
2022-10-17T09:38:18.877Z,102587.25
2022-10-17T09:43:45.741Z,102578.81
2022-10-17T09:49:17.190Z,102572.31
2022-10-17T09:54:48.955Z,102569.44
2022-10-17T10:00:23.233Z,102556.00
2022-10-17T10:06:04.341Z,102552.97
2022-10-17T10:11:51.678Z,102546.38
2022-10-17T10:17:37.919Z,102554.56
2022-10-17T10:23:15.063Z,102547.13
2022-10-17T10:28:40.273Z,102543.88
2022-10-17T10:34:17.415Z,102549.53
2022-10-17T10:39:49.763Z,102559.09
2022-10-17T10:45:35.609Z,102548.78
2022-10-17T10:51:09.281Z,102558.91
2022-10-17T10:56:39.951Z,102566.41
2022-10-17T11:02:14.214Z,102556.06
2022-10-17T11:07:44.695Z,102551.25
2022-10-17T11:13:18.383Z,102534.44
2022-10-17T11:18:49.808Z,102541.19
2022-10-17T11:24:23.135Z,102535.75
2022-10-17T11:29:50.487Z,102523.38
2022-10-17T11:35:22.553Z,102526.00
2022-10-17T11:40:52.529Z,102515.53
2022-10-17T11:46:23.843Z,102517.59
2022-10-17T11:52:01.178Z,102529.56
2022-10-17T11:57:54.227Z,102533.66
2022-10-17T12:03:32.690Z,102536.50
2022-10-17T12:09:04.230Z,102539.66
2022-10-17T12:14:44.345Z,102537.91
2022-10-17T12:20:31.658Z,102543.69
2022-10-17T12:26:03.288Z,102551.75
2022-10-17T12:31:33.906Z,102536.31
2022-10-17T12:37:04.762Z,102528.50
2022-10-17T12:42:34.569Z,102527.75
2022-10-17T12:47:59.753Z,102529.94
2022-10-17T12:53:34.964Z,102533.28
2022-10-17T12:59:00.897Z,102523.91
2022-10-17T13:04:26.117Z,102515.06
2022-10-17T13:09:53.261Z,102513.16
2022-10-17T13:15:20.083Z,102497.06
2022-10-17T13:20:43.950Z,102484.34
2022-10-17T13:26:18.218Z,102484.72
2022-10-17T13:31:44.226Z,102492.16
2022-10-17T13:37:13.781Z,102496.94
2022-10-17T13:42:41.623Z,102496.63
2022-10-17T13:48:10.118Z,102480.06
2022-10-17T13:53:41.331Z,102485.38
2022-10-17T13:59:21.809Z,102492.25
2022-10-17T14:05:15.732Z,102492.03
2022-10-17T14:10:36.775Z,102491.50
2022-10-17T14:16:05.048Z,102480.00
2022-10-17T14:21:43.365Z,102471.41
2022-10-17T14:27:29.553Z,102474.63
2022-10-17T14:33:01.260Z,102475.03
2022-10-17T14:38:27.014Z,102482.75
2022-10-17T14:43:57.454Z,102493.00
2022-10-17T14:49:28.900Z,102509.78
2022-10-17T14:54:54.085Z,102515.19
2022-10-17T15:00:24.387Z,102526.53
2022-10-17T15:05:52.274Z,102530.13
2022-10-17T15:11:18.399Z,102542.72
2022-10-17T15:16:42.461Z,102548.38
2022-10-17T15:22:07.546Z,102549.22
2022-10-17T15:27:32.612Z,102539.34
2022-10-17T15:32:57.115Z,102542.81
2022-10-17T15:38:23.771Z,102554.09
2022-10-17T15:43:48.376Z,102563.25
2022-10-17T15:49:17.558Z,102561.94
2022-10-17T15:54:43.764Z,102561.09
2022-10-17T16:00:16.628Z,102553.66
2022-10-17T16:05:40.816Z,102559.19
2022-10-17T16:11:06.321Z,102562.19
2022-10-17T16:16:31.021Z,102552.13
2022-10-17T16:21:56.253Z,102553.75
2022-10-17T16:27:24.189Z,102549.50
2022-10-17T16:32:48.545Z,102558.34
2022-10-17T16:38:12.532Z,102551.19
2022-10-17T16:43:40.790Z,102537.75
2022-10-17T16:49:06.288Z,102528.72
2022-10-17T16:54:31.094Z,102527.34
2022-10-17T16:59:56.337Z,102543.59
2022-10-17T17:05:21.993Z,102530.00
2022-10-17T17:10:51.137Z,102533.75
2022-10-17T17:16:20.094Z,102546.06
2022-10-17T17:21:50.105Z,102545.22
2022-10-17T17:27:14.189Z,102552.34
2022-10-17T17:32:40.233Z,102551.66
2022-10-17T17:38:06.081Z,102548.53
2022-10-17T17:43:30.903Z,102545.06
2022-10-17T17:48:57.607Z,102547.41
2022-10-17T17:54:22.660Z,102542.56
2022-10-17T17:59:48.535Z,102536.88
2022-10-17T18:05:14.396Z,102537.78
2022-10-17T18:10:38.422Z,102542.47
2022-10-17T18:16:12.676Z,102535.81
2022-10-17T18:21:38.416Z,102544.31
2022-10-17T18:27:02.754Z,102541.25
2022-10-17T18:32:32.144Z,102557.53
2022-10-17T18:37:58.425Z,102551.66
2022-10-17T18:43:22.774Z,102559.69
2022-10-17T18:48:48.455Z,102559.00
2022-10-17T18:54:20.412Z,102558.09
2022-10-17T18:59:45.159Z,102560.44
2022-10-17T19:05:10.491Z,102563.09
2022-10-17T19:10:37.756Z,102564.38
2022-10-17T19:16:05.446Z,102570.72
2022-10-17T19:21:29.779Z,102571.03
2022-10-17T19:26:57.779Z,102562.66
2022-10-17T19:32:23.091Z,102555.66
2022-10-17T19:37:48.009Z,102562.06
2022-10-17T19:43:17.086Z,102553.63
2022-10-17T19:48:41.658Z,102556.34
2022-10-17T19:54:06.062Z,102564.25
2022-10-17T19:59:32.130Z,102553.91
2022-10-17T20:05:13.809Z,102555.63
2022-10-17T20:10:42.530Z,102554.44
2022-10-17T20:16:11.662Z,102559.47
2022-10-17T20:21:39.582Z,102549.41
2022-10-17T20:27:03.160Z,102545.31
2022-10-17T20:32:28.626Z,102552.69
2022-10-17T20:37:53.978Z,102542.28
2022-10-17T20:43:18.709Z,102542.72
2022-10-17T20:48:44.723Z,102531.59
2022-10-17T20:54:09.000Z,102527.53
2022-10-17T20:59:34.394Z,102522.28
2022-10-17T21:04:59.581Z,102517.94
2022-10-17T21:10:34.928Z,102522.47
2022-10-17T21:16:07.359Z,102508.31
2022-10-17T21:21:35.539Z,102515.72
2022-10-17T21:27:00.311Z,102510.31
2022-10-17T21:32:47.240Z,102509.53
2022-10-17T21:38:13.093Z,102509.94
2022-10-17T21:43:38.711Z,102510.00
2022-10-17T21:49:04.101Z,102495.97
2022-10-17T21:54:29.573Z,102500.13
2022-10-17T21:59:53.634Z,102508.31
2022-10-17T22:05:17.963Z,102508.31
2022-10-17T22:10:44.007Z,102502.88
2022-10-17T22:16:10.920Z,102504.91
2022-10-17T22:21:36.123Z,102507.84
2022-10-17T22:27:01.608Z,102507.31
2022-10-17T22:32:25.766Z,102511.03
2022-10-17T22:37:50.000Z,102519.63
2022-10-17T22:43:16.243Z,102515.56
2022-10-17T22:48:41.142Z,102512.59
2022-10-17T22:54:05.968Z,102522.88
2022-10-17T22:59:32.119Z,102514.84
2022-10-17T23:04:56.728Z,102520.47
2022-10-17T23:10:22.930Z,102516.50
2022-10-17T23:15:51.705Z,102516.50
2022-10-17T23:21:16.757Z,102519.25
2022-10-17T23:26:41.384Z,102515.50
2022-10-17T23:32:07.570Z,102505.22
2022-10-17T23:37:32.234Z,102506.38
2022-10-17T23:42:57.207Z,102503.34
2022-10-17T23:48:23.871Z,102512.16
2022-10-17T23:53:48.614Z,102502.56
2022-10-17T23:59:12.729Z,102513.69
